sensor_id;sensor_type;location;lat;lon;timestamp;pressure;altitude;pressure_sealevel;temperature;humidity
78615;BME280;67937;52.488;20.952;2023-08-08T00:00:24;99653.04;;;15.29;79.29
78615;BME280;67937;52.488;20.952;2023-08-08T00:03:12;99655.56;;;15.27;79.15
78615;BME280;67937;52.488;20.952;2023-08-08T00:05:40;99657.94;;;15.26;78.93
78615;BME280;67937;52.488;20.952;2023-08-08T00:08:09;99653.64;;;15.22;78.79
78615;BME280;67937;52.488;20.952;2023-08-08T00:10:37;99661.47;;;15.20;78.80
78615;BME280;67937;52.488;20.952;2023-08-08T00:13:05;99661.23;;;15.24;78.55
78615;BME280;67937;52.488;20.952;2023-08-08T00:15:33;99666.86;;;15.26;77.87
78615;BME280;67937;52.488;20.952;2023-08-08T00:18:01;99669.86;;;15.23;77.60
78615;BME280;67937;52.488;20.952;2023-08-08T00:20:29;99674.50;;;15.18;77.77
78615;BME280;67937;52.488;20.952;2023-08-08T00:22:57;99682.39;;;15.19;77.64
78615;BME280;67937;52.488;20.952;2023-08-08T00:25:25;99692.38;;;15.14;77.31
78615;BME280;67937;52.488;20.952;2023-08-08T00:27:53;99690.35;;;15.18;76.95
78615;BME280;67937;52.488;20.952;2023-08-08T00:30:21;99691.06;;;15.19;76.01
78615;BME280;67937;52.488;20.952;2023-08-08T00:32:49;99690.52;;;15.13;76.51
78615;BME280;67937;52.488;20.952;2023-08-08T00:35:17;99688.31;;;15.12;76.34
78615;BME280;67937;52.488;20.952;2023-08-08T00:37:45;99690.45;;;15.15;76.03
78615;BME280;67937;52.488;20.952;2023-08-08T00:40:13;99691.30;;;15.10;76.15
78615;BME280;67937;52.488;20.952;2023-08-08T00:42:41;99699.61;;;15.11;76.21
78615;BME280;67937;52.488;20.952;2023-08-08T00:45:09;99698.58;;;15.11;76.04
78615;BME280;67937;52.488;20.952;2023-08-08T00:47:37;99701.70;;;15.08;76.05
78615;BME280;67937;52.488;20.952;2023-08-08T00:50:06;99706.00;;;15.08;75.86
78615;BME280;67937;52.488;20.952;2023-08-08T00:52:35;99710.16;;;15.07;76.15
78615;BME280;67937;52.488;20.952;2023-08-08T00:55:04;99708.91;;;15.14;75.62
78615;BME280;67937;52.488;20.952;2023-08-08T00:57:32;99712.84;;;15.14;75.53
78615;BME280;67937;52.488;20.952;2023-08-08T01:00:02;99715.78;;;15.11;75.35
78615;BME280;67937;52.488;20.952;2023-08-08T01:02:31;99718.64;;;15.06;75.69
78615;BME280;67937;52.488;20.952;2023-08-08T01:04:59;99714.84;;;15.07;75.66
78615;BME280;67937;52.488;20.952;2023-08-08T01:10:39;99723.04;;;14.98;75.18
78615;BME280;67937;52.488;20.952;2023-08-08T01:13:02;99727.27;;;14.89;75.30
78615;BME280;67937;52.488;20.952;2023-08-08T01:15:32;99734.89;;;14.82;75.38
78615;BME280;67937;52.488;20.952;2023-08-08T01:18:07;99739.60;;;14.77;75.65
78615;BME280;67937;52.488;20.952;2023-08-08T01:20:37;99743.83;;;14.77;75.82
78615;BME280;67937;52.488;20.952;2023-08-08T01:25:38;99744.48;;;14.72;75.48
78615;BME280;67937;52.488;20.952;2023-08-08T01:28:07;99750.77;;;14.72;74.56
78615;BME280;67937;52.488;20.952;2023-08-08T01:30:35;99754.14;;;14.64;74.77
78615;BME280;67937;52.488;20.952;2023-08-08T01:33:04;99755.27;;;14.56;75.46
78615;BME280;67937;52.488;20.952;2023-08-08T01:35:37;99756.52;;;14.53;75.24
78615;BME280;67937;52.488;20.952;2023-08-08T01:38:15;99759.19;;;14.55;75.12
78615;BME280;67937;52.488;20.952;2023-08-08T01:40:45;99760.53;;;14.49;75.39
78615;BME280;67937;52.488;20.952;2023-08-08T01:43:14;99758.07;;;14.51;75.33
78615;BME280;67937;52.488;20.952;2023-08-08T01:45:43;99761.31;;;14.39;75.54
78615;BME280;67937;52.488;20.952;2023-08-08T01:48:11;99765.13;;;14.44;75.56
78615;BME280;67937;52.488;20.952;2023-08-08T01:50:39;99765.60;;;14.39;75.88
78615;BME280;67937;52.488;20.952;2023-08-08T01:53:07;99769.55;;;14.40;75.35
78615;BME280;67937;52.488;20.952;2023-08-08T01:55:35;99777.43;;;14.40;74.71
78615;BME280;67937;52.488;20.952;2023-08-08T01:58:03;99774.30;;;14.34;75.18
78615;BME280;67937;52.488;20.952;2023-08-08T02:00:31;99777.33;;;14.25;75.63
78615;BME280;67937;52.488;20.952;2023-08-08T02:02:59;99778.07;;;14.23;75.49
78615;BME280;67937;52.488;20.952;2023-08-08T02:05:28;99776.67;;;14.23;74.87
78615;BME280;67937;52.488;20.952;2023-08-08T02:07:56;99780.34;;;14.20;75.05
78615;BME280;67937;52.488;20.952;2023-08-08T02:10:24;99792.60;;;14.13;75.63
78615;BME280;67937;52.488;20.952;2023-08-08T02:12:54;99794.70;;;14.08;75.91
78615;BME280;67937;52.488;20.952;2023-08-08T02:15:22;99798.73;;;14.07;76.19
78615;BME280;67937;52.488;20.952;2023-08-08T02:17:50;99798.23;;;14.08;75.85
78615;BME280;67937;52.488;20.952;2023-08-08T02:20:18;99800.38;;;14.08;76.07
78615;BME280;67937;52.488;20.952;2023-08-08T02:22:46;99801.75;;;14.04;76.19
78615;BME280;67937;52.488;20.952;2023-08-08T02:25:14;99801.77;;;14.02;76.01
78615;BME280;67937;52.488;20.952;2023-08-08T02:27:42;99808.16;;;13.98;76.39
78615;BME280;67937;52.488;20.952;2023-08-08T02:30:11;99808.67;;;13.90;76.56
78615;BME280;67937;52.488;20.952;2023-08-08T02:32:39;99811.13;;;14.04;76.11
78615;BME280;67937;52.488;20.952;2023-08-08T02:35:07;99815.80;;;13.93;76.41
78615;BME280;67937;52.488;20.952;2023-08-08T02:37:35;99818.88;;;13.99;76.26
78615;BME280;67937;52.488;20.952;2023-08-08T02:40:05;99818.70;;;13.90;77.04
78615;BME280;67937;52.488;20.952;2023-08-08T02:42:33;99822.09;;;13.85;77.04
78615;BME280;67937;52.488;20.952;2023-08-08T02:45:01;99820.30;;;13.87;76.51
78615;BME280;67937;52.488;20.952;2023-08-08T02:47:29;99826.27;;;13.81;76.33
78615;BME280;67937;52.488;20.952;2023-08-08T02:49:57;99823.16;;;13.75;77.02
78615;BME280;67937;52.488;20.952;2023-08-08T02:52:25;99827.80;;;13.72;76.73
78615;BME280;67937;52.488;20.952;2023-08-08T02:54:53;99834.05;;;13.70;77.00
78615;BME280;67937;52.488;20.952;2023-08-08T02:57:21;99838.27;;;13.67;77.23
78615;BME280;67937;52.488;20.952;2023-08-08T02:59:49;99841.77;;;13.62;77.03
78615;BME280;67937;52.488;20.952;2023-08-08T03:02:17;99843.00;;;13.59;77.20
78615;BME280;67937;52.488;20.952;2023-08-08T03:04:45;99846.52;;;13.58;77.15
78615;BME280;67937;52.488;20.952;2023-08-08T03:07:13;99842.70;;;13.62;76.34
78615;BME280;67937;52.488;20.952;2023-08-08T03:09:41;99849.44;;;13.62;75.79
78615;BME280;67937;52.488;20.952;2023-08-08T03:12:09;99855.01;;;13.61;75.97
78615;BME280;67937;52.488;20.952;2023-08-08T03:14:37;99857.30;;;13.56;76.02
78615;BME280;67937;52.488;20.952;2023-08-08T03:17:05;99855.27;;;13.50;76.03
78615;BME280;67937;52.488;20.952;2023-08-08T03:19:33;99867.16;;;13.52;76.14
78615;BME280;67937;52.488;20.952;2023-08-08T03:22:01;99870.48;;;13.50;75.75
78615;BME280;67937;52.488;20.952;2023-08-08T03:24:29;99872.98;;;13.50;75.85
78615;BME280;67937;52.488;20.952;2023-08-08T03:26:57;99877.98;;;13.48;75.42
78615;BME280;67937;52.488;20.952;2023-08-08T03:29:25;99877.41;;;13.39;75.82
78615;BME280;67937;52.488;20.952;2023-08-08T03:31:53;99887.09;;;13.40;76.10
78615;BME280;67937;52.488;20.952;2023-08-08T03:34:20;99888.63;;;13.37;76.31
78615;BME280;67937;52.488;20.952;2023-08-08T03:36:48;99886.52;;;13.37;75.86
78615;BME280;67937;52.488;20.952;2023-08-08T03:39:16;99891.65;;;13.37;75.56
78615;BME280;67937;52.488;20.952;2023-08-08T03:41:44;99891.44;;;13.34;75.63
78615;BME280;67937;52.488;20.952;2023-08-08T03:44:13;99891.39;;;13.40;75.41
78615;BME280;67937;52.488;20.952;2023-08-08T03:46:41;99894.38;;;13.38;75.31
78615;BME280;67937;52.488;20.952;2023-08-08T03:49:09;99896.42;;;13.33;75.50
78615;BME280;67937;52.488;20.952;2023-08-08T03:51:37;99899.34;;;13.29;75.52
78615;BME280;67937;52.488;20.952;2023-08-08T03:54:05;99906.04;;;13.35;75.47
78615;BME280;67937;52.488;20.952;2023-08-08T03:56:33;99907.48;;;13.38;75.48
78615;BME280;67937;52.488;20.952;2023-08-08T03:59:01;99908.61;;;13.30;75.91
78615;BME280;67937;52.488;20.952;2023-08-08T04:01:30;99913.06;;;13.28;75.75
78615;BME280;67937;52.488;20.952;2023-08-08T04:03:58;99912.92;;;13.32;75.47
78615;BME280;67937;52.488;20.952;2023-08-08T04:06:26;99918.29;;;13.31;75.80
78615;BME280;67937;52.488;20.952;2023-08-08T04:08:54;99919.00;;;13.35;75.13
78615;BME280;67937;52.488;20.952;2023-08-08T04:11:22;99922.67;;;13.28;75.67
78615;BME280;67937;52.488;20.952;2023-08-08T04:13:50;99922.77;;;13.34;75.56
78615;BME280;67937;52.488;20.952;2023-08-08T04:16:18;99928.14;;;13.35;75.60
78615;BME280;67937;52.488;20.952;2023-08-08T04:18:50;99930.58;;;13.28;75.81
78615;BME280;67937;52.488;20.952;2023-08-08T04:21:18;99936.58;;;13.32;75.24
78615;BME280;67937;52.488;20.952;2023-08-08T04:23:46;99939.04;;;13.33;75.16
78615;BME280;67937;52.488;20.952;2023-08-08T04:26:14;99943.61;;;13.29;75.79
78615;BME280;67937;52.488;20.952;2023-08-08T04:28:42;99950.14;;;13.33;75.53
78615;BME280;67937;52.488;20.952;2023-08-08T04:31:10;99955.90;;;13.43;74.78
78615;BME280;67937;52.488;20.952;2023-08-08T04:33:38;99959.23;;;13.40;74.89
78615;BME280;67937;52.488;20.952;2023-08-08T04:36:06;99960.92;;;13.43;74.93
78615;BME280;67937;52.488;20.952;2023-08-08T04:38:34;99966.63;;;13.44;75.33
78615;BME280;67937;52.488;20.952;2023-08-08T04:41:02;99967.49;;;13.49;74.61
78615;BME280;67937;52.488;20.952;2023-08-08T04:43:30;99970.10;;;13.54;75.00
78615;BME280;67937;52.488;20.952;2023-08-08T04:45:58;99968.69;;;13.55;74.92
78615;BME280;67937;52.488;20.952;2023-08-08T04:48:26;99973.01;;;13.60;74.71
78615;BME280;67937;52.488;20.952;2023-08-08T04:50:54;99975.95;;;13.64;74.44
78615;BME280;67937;52.488;20.952;2023-08-08T04:53:22;99976.30;;;13.70;74.29
78615;BME280;67937;52.488;20.952;2023-08-08T04:55:50;99976.35;;;13.71;74.40
78615;BME280;67937;52.488;20.952;2023-08-08T04:58:18;99978.20;;;13.79;73.66
78615;BME280;67937;52.488;20.952;2023-08-08T05:00:46;99983.17;;;13.86;73.51
78615;BME280;67937;52.488;20.952;2023-08-08T05:03:14;99980.73;;;13.93;73.06
78615;BME280;67937;52.488;20.952;2023-08-08T05:05:42;99979.36;;;13.96;73.12
78615;BME280;67937;52.488;20.952;2023-08-08T05:08:13;99985.57;;;14.03;72.47
78615;BME280;67937;52.488;20.952;2023-08-08T05:10:41;99984.06;;;13.97;72.67
78615;BME280;67937;52.488;20.952;2023-08-08T05:13:10;99988.47;;;14.08;72.76
78615;BME280;67937;52.488;20.952;2023-08-08T05:15:38;99988.02;;;14.16;72.27
78615;BME280;67937;52.488;20.952;2023-08-08T05:18:06;99993.90;;;14.19;72.12
78615;BME280;67937;52.488;20.952;2023-08-08T05:20:34;99998.45;;;14.22;72.81
78615;BME280;67937;52.488;20.952;2023-08-08T05:23:02;99995.13;;;14.30;72.30
78615;BME280;67937;52.488;20.952;2023-08-08T05:25:30;99997.63;;;14.42;71.80
78615;BME280;67937;52.488;20.952;2023-08-08T05:27:58;100000.20;;;14.62;71.96
78615;BME280;67937;52.488;20.952;2023-08-08T05:30:26;99998.98;;;14.74;71.31
78615;BME280;67937;52.488;20.952;2023-08-08T05:32:54;100003.34;;;14.78;71.17
78615;BME280;67937;52.488;20.952;2023-08-08T05:35:22;100006.63;;;14.84;70.81
78615;BME280;67937;52.488;20.952;2023-08-08T05:37:50;100002.27;;;14.90;70.53
78615;BME280;67937;52.488;20.952;2023-08-08T05:40:18;100002.41;;;14.85;70.20
78615;BME280;67937;52.488;20.952;2023-08-08T05:42:46;100006.71;;;15.00;69.68
78615;BME280;67937;52.488;20.952;2023-08-08T05:45:14;100011.98;;;14.89;70.09
78615;BME280;67937;52.488;20.952;2023-08-08T05:47:42;100010.02;;;14.93;70.47
78615;BME280;67937;52.488;20.952;2023-08-08T05:50:10;100010.55;;;14.98;70.41
78615;BME280;67937;52.488;20.952;2023-08-08T05:52:38;100013.24;;;15.08;69.52
78615;BME280;67937;52.488;20.952;2023-08-08T05:55:06;100016.30;;;15.06;69.51
78615;BME280;67937;52.488;20.952;2023-08-08T05:57:34;100015.80;;;15.07;69.42
78615;BME280;67937;52.488;20.952;2023-08-08T06:00:02;100016.23;;;15.05;70.50
78615;BME280;67937;52.488;20.952;2023-08-08T06:02:31;100021.34;;;15.12;69.76
78615;BME280;67937;52.488;20.952;2023-08-08T06:04:59;100019.75;;;15.15;69.02
78615;BME280;67937;52.488;20.952;2023-08-08T06:07:27;100023.20;;;15.21;68.54
78615;BME280;67937;52.488;20.952;2023-08-08T06:09:55;100025.86;;;15.11;69.40
78615;BME280;67937;52.488;20.952;2023-08-08T06:12:24;100027.86;;;15.16;70.13
78615;BME280;67937;52.488;20.952;2023-08-08T06:14:52;100034.65;;;15.26;69.42
78615;BME280;67937;52.488;20.952;2023-08-08T06:17:20;100034.00;;;15.32;68.57
78615;BME280;67937;52.488;20.952;2023-08-08T06:19:50;100027.51;;;15.42;67.71
78615;BME280;67937;52.488;20.952;2023-08-08T06:22:18;100036.41;;;15.40;68.04
78615;BME280;67937;52.488;20.952;2023-08-08T06:24:46;100037.66;;;15.32;68.25
78615;BME280;67937;52.488;20.952;2023-08-08T06:27:14;100037.50;;;15.37;68.47
78615;BME280;67937;52.488;20.952;2023-08-08T06:29:42;100039.62;;;15.42;68.85
78615;BME280;67937;52.488;20.952;2023-08-08T06:32:10;100042.45;;;15.49;68.81
78615;BME280;67937;52.488;20.952;2023-08-08T06:34:38;100043.34;;;15.52;68.65
78615;BME280;67937;52.488;20.952;2023-08-08T06:37:06;100042.60;;;15.46;68.74
78615;BME280;67937;52.488;20.952;2023-08-08T06:39:34;100048.88;;;15.53;68.69
78615;BME280;67937;52.488;20.952;2023-08-08T06:42:04;100050.50;;;15.52;68.60
78615;BME280;67937;52.488;20.952;2023-08-08T06:44:41;100054.10;;;15.53;68.73
78615;BME280;67937;52.488;20.952;2023-08-08T06:47:11;100057.00;;;15.56;68.82
78615;BME280;67937;52.488;20.952;2023-08-08T06:49:39;100052.28;;;15.62;68.67
78615;BME280;67937;52.488;20.952;2023-08-08T06:52:08;100057.04;;;15.77;66.55
78615;BME280;67937;52.488;20.952;2023-08-08T06:54:37;100062.70;;;15.64;66.91
78615;BME280;67937;52.488;20.952;2023-08-08T06:57:05;100064.06;;;15.58;68.16
78615;BME280;67937;52.488;20.952;2023-08-08T06:59:33;100071.23;;;15.68;67.82
78615;BME280;67937;52.488;20.952;2023-08-08T07:02:03;100069.31;;;15.64;66.94
78615;BME280;67937;52.488;20.952;2023-08-08T07:04:32;100069.27;;;15.64;67.19
78615;BME280;67937;52.488;20.952;2023-08-08T07:07:01;100068.29;;;15.62;67.99
78615;BME280;67937;52.488;20.952;2023-08-08T07:09:30;100063.32;;;15.68;66.89
78615;BME280;67937;52.488;20.952;2023-08-08T07:11:59;100069.83;;;15.82;66.14
78615;BME280;67937;52.488;20.952;2023-08-08T07:14:29;100075.45;;;15.88;67.30
78615;BME280;67937;52.488;20.952;2023-08-08T07:16:59;100070.20;;;16.09;66.95
78615;BME280;67937;52.488;20.952;2023-08-08T07:19:30;100065.33;;;16.09;65.31
78615;BME280;67937;52.488;20.952;2023-08-08T07:21:59;100067.05;;;16.10;65.28
78615;BME280;67937;52.488;20.952;2023-08-08T07:24:28;100074.04;;;16.14;64.82
78615;BME280;67937;52.488;20.952;2023-08-08T07:26:59;100071.52;;;16.18;65.76
78615;BME280;67937;52.488;20.952;2023-08-08T07:29:27;100075.29;;;16.18;65.75
78615;BME280;67937;52.488;20.952;2023-08-08T07:31:57;100076.28;;;16.26;65.04
78615;BME280;67937;52.488;20.952;2023-08-08T07:34:25;100079.09;;;16.24;64.93
78615;BME280;67937;52.488;20.952;2023-08-08T07:36:53;100081.15;;;16.11;65.66
78615;BME280;67937;52.488;20.952;2023-08-08T07:39:22;100087.69;;;16.03;66.12
78615;BME280;67937;52.488;20.952;2023-08-08T07:41:51;100083.56;;;16.07;66.54
78615;BME280;67937;52.488;20.952;2023-08-08T07:44:20;100083.64;;;16.19;65.80
78615;BME280;67937;52.488;20.952;2023-08-08T07:46:48;100086.80;;;16.28;64.73
78615;BME280;67937;52.488;20.952;2023-08-08T07:49:17;100078.95;;;16.22;63.71
78615;BME280;67937;52.488;20.952;2023-08-08T07:51:46;100090.05;;;16.08;64.61
78615;BME280;67937;52.488;20.952;2023-08-08T07:54:15;100099.34;;;16.04;65.17
78615;BME280;67937;52.488;20.952;2023-08-08T07:56:43;100094.52;;;16.22;64.30
78615;BME280;67937;52.488;20.952;2023-08-08T07:59:13;100097.03;;;16.34;63.77
78615;BME280;67937;52.488;20.952;2023-08-08T08:01:41;100095.88;;;16.38;63.80
78615;BME280;67937;52.488;20.952;2023-08-08T08:04:10;100094.23;;;16.35;63.95
78615;BME280;67937;52.488;20.952;2023-08-08T08:06:39;100092.84;;;16.43;64.80
78615;BME280;67937;52.488;20.952;2023-08-08T08:09:08;100086.23;;;16.60;63.50
78615;BME280;67937;52.488;20.952;2023-08-08T08:11:37;100087.11;;;16.63;64.15
78615;BME280;67937;52.488;20.952;2023-08-08T08:14:05;100081.57;;;16.71;63.46
78615;BME280;67937;52.488;20.952;2023-08-08T08:16:34;100080.89;;;16.84;62.84
78615;BME280;67937;52.488;20.952;2023-08-08T08:19:02;100084.86;;;16.93;62.99
78615;BME280;67937;52.488;20.952;2023-08-08T08:21:31;100081.86;;;17.06;63.24
78615;BME280;67937;52.488;20.952;2023-08-08T08:24:03;100086.22;;;17.40;62.12
78615;BME280;67937;52.488;20.952;2023-08-08T08:26:32;100087.55;;;17.53;60.43
78615;BME280;67937;52.488;20.952;2023-08-08T08:29:01;100089.09;;;17.36;61.24
78615;BME280;67937;52.488;20.952;2023-08-08T08:31:33;100086.19;;;17.45;60.07
78615;BME280;67937;52.488;20.952;2023-08-08T08:34:01;100085.89;;;17.48;60.51
78615;BME280;67937;52.488;20.952;2023-08-08T08:36:29;100088.70;;;17.46;60.58
78615;BME280;67937;52.488;20.952;2023-08-08T08:38:58;100090.39;;;17.66;60.08
78615;BME280;67937;52.488;20.952;2023-08-08T08:41:27;100093.24;;;17.66;60.13
78615;BME280;67937;52.488;20.952;2023-08-08T08:43:56;100097.00;;;17.83;59.37
78615;BME280;67937;52.488;20.952;2023-08-08T08:46:25;100090.77;;;17.85;58.90
78615;BME280;67937;52.488;20.952;2023-08-08T08:48:54;100092.23;;;18.04;57.88
78615;BME280;67937;52.488;20.952;2023-08-08T08:51:24;100094.27;;;17.92;57.36
78615;BME280;67937;52.488;20.952;2023-08-08T08:53:52;100101.41;;;17.77;58.46
78615;BME280;67937;52.488;20.952;2023-08-08T08:56:20;100097.17;;;17.84;58.65
78615;BME280;67937;52.488;20.952;2023-08-08T08:58:51;100096.59;;;17.79;58.84
78615;BME280;67937;52.488;20.952;2023-08-08T09:01:27;100097.76;;;17.90;60.07
78615;BME280;67937;52.488;20.952;2023-08-08T09:04:06;100097.05;;;17.99;59.67
78615;BME280;67937;52.488;20.952;2023-08-08T09:07:05;100088.20;;;17.90;59.46
78615;BME280;67937;52.488;20.952;2023-08-08T09:09:44;100094.95;;;18.32;58.35
78615;BME280;67937;52.488;20.952;2023-08-08T09:12:12;100096.95;;;18.29;57.85
78615;BME280;67937;52.488;20.952;2023-08-08T09:14:44;100108.09;;;18.13;57.90
78615;BME280;67937;52.488;20.952;2023-08-08T09:17:27;100112.82;;;18.11;57.65
78615;BME280;67937;52.488;20.952;2023-08-08T09:19:56;100113.57;;;17.92;58.06
78615;BME280;67937;52.488;20.952;2023-08-08T09:22:25;100113.15;;;17.89;57.72
78615;BME280;67937;52.488;20.952;2023-08-08T09:24:54;100109.59;;;17.70;58.24
78615;BME280;67937;52.488;20.952;2023-08-08T09:27:28;100113.20;;;17.74;58.48
78615;BME280;67937;52.488;20.952;2023-08-08T09:29:56;100118.44;;;17.80;58.70
78615;BME280;67937;52.488;20.952;2023-08-08T09:32:29;100116.53;;;17.78;59.05
78615;BME280;67937;52.488;20.952;2023-08-08T09:34:59;100114.64;;;17.82;58.30
78615;BME280;67937;52.488;20.952;2023-08-08T09:37:36;100116.27;;;17.96;58.62
78615;BME280;67937;52.488;20.952;2023-08-08T09:40:06;100119.54;;;17.93;58.87
78615;BME280;67937;52.488;20.952;2023-08-08T09:42:51;100123.25;;;17.69;58.51
78615;BME280;67937;52.488;20.952;2023-08-08T09:45:40;100125.98;;;17.54;58.81
78615;BME280;67937;52.488;20.952;2023-08-08T09:48:09;100128.93;;;17.52;59.35
78615;BME280;67937;52.488;20.952;2023-08-08T09:50:41;100128.16;;;17.49;59.48
78615;BME280;67937;52.488;20.952;2023-08-08T09:53:11;100125.85;;;17.48;59.82
78615;BME280;67937;52.488;20.952;2023-08-08T09:55:40;100127.54;;;17.45;60.02
78615;BME280;67937;52.488;20.952;2023-08-08T09:58:12;100129.25;;;17.49;59.23
78615;BME280;67937;52.488;20.952;2023-08-08T10:00:42;100132.18;;;17.52;58.76
78615;BME280;67937;52.488;20.952;2023-08-08T10:03:14;100133.40;;;17.60;57.80
78615;BME280;67937;52.488;20.952;2023-08-08T10:05:45;100127.64;;;17.62;58.77
78615;BME280;67937;52.488;20.952;2023-08-08T10:08:15;100127.26;;;17.70;59.27
78615;BME280;67937;52.488;20.952;2023-08-08T10:10:45;100121.20;;;17.75;58.60
78615;BME280;67937;52.488;20.952;2023-08-08T10:13:28;100127.70;;;17.82;58.13
78615;BME280;67937;52.488;20.952;2023-08-08T10:15:56;100118.85;;;17.95;57.15
78615;BME280;67937;52.488;20.952;2023-08-08T10:18:29;100119.82;;;18.04;56.05
78615;BME280;67937;52.488;20.952;2023-08-08T10:20:58;100112.54;;;18.29;54.10
78615;BME280;67937;52.488;20.952;2023-08-08T10:23:36;100117.93;;;18.36;53.38
78615;BME280;67937;52.488;20.952;2023-08-08T10:26:05;100115.09;;;18.39;54.11
78615;BME280;67937;52.488;20.952;2023-08-08T10:28:34;100114.71;;;18.53;54.78
78615;BME280;67937;52.488;20.952;2023-08-08T10:31:03;100107.17;;;18.79;53.74
78615;BME280;67937;52.488;20.952;2023-08-08T10:33:42;100110.54;;;18.96;53.77
78615;BME280;67937;52.488;20.952;2023-08-08T10:36:10;100114.95;;;18.87;52.24
78615;BME280;67937;52.488;20.952;2023-08-08T10:38:48;100122.83;;;18.78;51.71
78615;BME280;67937;52.488;20.952;2023-08-08T10:41:20;100120.71;;;18.70;52.45
78615;BME280;67937;52.488;20.952;2023-08-08T10:43:54;100127.98;;;18.54;51.97
78615;BME280;67937;52.488;20.952;2023-08-08T10:46:32;100126.40;;;18.34;53.60
78615;BME280;67937;52.488;20.952;2023-08-08T10:49:05;100130.64;;;18.37;54.29
78615;BME280;67937;52.488;20.952;2023-08-08T10:51:37;100135.77;;;18.50;52.82
78615;BME280;67937;52.488;20.952;2023-08-08T10:54:08;100135.58;;;18.50;52.44
78615;BME280;67937;52.488;20.952;2023-08-08T10:56:40;100132.72;;;18.53;52.32
78615;BME280;67937;52.488;20.952;2023-08-08T10:59:23;100131.53;;;18.57;51.97
78615;BME280;67937;52.488;20.952;2023-08-08T11:02:06;100127.50;;;18.41;51.20
78615;BME280;67937;52.488;20.952;2023-08-08T11:04:35;100132.50;;;18.40;53.43
78615;BME280;67937;52.488;20.952;2023-08-08T11:07:04;100135.87;;;18.51;54.10
78615;BME280;67937;52.488;20.952;2023-08-08T11:09:32;100138.42;;;18.66;52.50
78615;BME280;67937;52.488;20.952;2023-08-08T11:12:01;100140.40;;;18.65;52.39
78615;BME280;67937;52.488;20.952;2023-08-08T11:14:29;100145.17;;;18.64;52.19
78615;BME280;67937;52.488;20.952;2023-08-08T11:16:57;100149.65;;;18.60;51.85
78615;BME280;67937;52.488;20.952;2023-08-08T11:19:25;100150.48;;;18.66;51.09
78615;BME280;67937;52.488;20.952;2023-08-08T11:21:53;100152.33;;;18.73;52.11
78615;BME280;67937;52.488;20.952;2023-08-08T11:24:22;100153.52;;;18.81;50.93
78615;BME280;67937;52.488;20.952;2023-08-08T11:26:50;100151.71;;;18.74;51.24
78615;BME280;67937;52.488;20.952;2023-08-08T11:29:19;100158.19;;;18.72;51.60
78615;BME280;67937;52.488;20.952;2023-08-08T11:31:48;100154.55;;;18.70;51.59
78615;BME280;67937;52.488;20.952;2023-08-08T11:34:16;100152.73;;;18.67;50.28
78615;BME280;67937;52.488;20.952;2023-08-08T11:36:46;100158.14;;;18.64;50.51
78615;BME280;67937;52.488;20.952;2023-08-08T11:39:15;100156.21;;;18.56;51.19
78615;BME280;67937;52.488;20.952;2023-08-08T11:41:44;100153.42;;;18.58;51.27
78615;BME280;67937;52.488;20.952;2023-08-08T11:44:13;100151.20;;;18.46;51.73
78615;BME280;67937;52.488;20.952;2023-08-08T11:46:46;100156.81;;;18.47;50.48
78615;BME280;67937;52.488;20.952;2023-08-08T11:49:16;100160.13;;;18.45;51.17
78615;BME280;67937;52.488;20.952;2023-08-08T11:51:49;100157.89;;;18.55;52.19
78615;BME280;67937;52.488;20.952;2023-08-08T11:54:19;100155.88;;;18.64;51.33
78615;BME280;67937;52.488;20.952;2023-08-08T11:56:50;100157.51;;;18.75;51.80
78615;BME280;67937;52.488;20.952;2023-08-08T11:59:35;100158.35;;;18.84;51.40
78615;BME280;67937;52.488;20.952;2023-08-08T12:02:05;100157.95;;;19.12;51.22
78615;BME280;67937;52.488;20.952;2023-08-08T12:05:10;100154.45;;;19.55;50.02
78615;BME280;67937;52.488;20.952;2023-08-08T12:07:40;100159.52;;;19.91;48.24
78615;BME280;67937;52.488;20.952;2023-08-08T12:10:26;100165.79;;;19.93;46.77
78615;BME280;67937;52.488;20.952;2023-08-08T12:13:26;100163.53;;;19.67;48.18
78615;BME280;67937;52.488;20.952;2023-08-08T12:16:08;100162.86;;;19.47;48.11
78615;BME280;67937;52.488;20.952;2023-08-08T12:18:40;100166.65;;;19.38;48.59
78615;BME280;67937;52.488;20.952;2023-08-08T12:21:15;100166.33;;;19.36;49.22
78615;BME280;67937;52.488;20.952;2023-08-08T12:23:50;100169.94;;;19.64;49.85
78615;BME280;67937;52.488;20.952;2023-08-08T12:26:24;100165.48;;;19.79;47.83
78615;BME280;67937;52.488;20.952;2023-08-08T12:28:53;100170.61;;;19.62;47.68
78615;BME280;67937;52.488;20.952;2023-08-08T12:31:22;100170.52;;;19.50;48.22
78615;BME280;67937;52.488;20.952;2023-08-08T12:33:53;100174.99;;;19.48;49.96
78615;BME280;67937;52.488;20.952;2023-08-08T12:36:27;100171.07;;;19.53;48.78
78615;BME280;67937;52.488;20.952;2023-08-08T12:38:56;100178.02;;;19.63;48.12
78615;BME280;67937;52.488;20.952;2023-08-08T12:41:25;100173.15;;;19.61;48.20
78615;BME280;67937;52.488;20.952;2023-08-08T12:43:55;100175.00;;;19.80;49.02
78615;BME280;67937;52.488;20.952;2023-08-08T12:46:24;100173.10;;;19.98;49.39
78615;BME280;67937;52.488;20.952;2023-08-08T12:48:52;100177.15;;;20.28;48.34
78615;BME280;67937;52.488;20.952;2023-08-08T12:51:20;100170.71;;;20.52;47.14
78615;BME280;67937;52.488;20.952;2023-08-08T12:53:50;100173.04;;;20.53;46.62
78615;BME280;67937;52.488;20.952;2023-08-08T12:56:18;100181.17;;;20.42;47.06
78615;BME280;67937;52.488;20.952;2023-08-08T12:58:50;100180.82;;;20.09;47.44
78615;BME280;67937;52.488;20.952;2023-08-08T13:01:18;100186.90;;;19.82;47.67
78615;BME280;67937;52.488;20.952;2023-08-08T13:03:46;100187.91;;;19.65;47.81